Time;durP1;ratioP1;P1;durP2;ratioP2;P2;SDS_P1;SDS_P2;PMS_P1;PMS_P2;Temp;Humidity;BMP_temperature;BMP_pressure;BME280_temperature;BME280_humidity;BME280_pressure;Samples;Min_cycle;Max_cycle;Signal;HPM_P1;HPM_P2
2021/01/11 00:01:28;;;;;;;64.57;34.73;;;1.00;99.90;;;;;;5114774;28;20177;-80
2021/01/11 00:03:54;;;;;;;62.38;33.20;;;1.00;99.90;;;;;;5095072;28;20455;-80
2021/01/11 00:06:20;;;;;;;57.80;32.07;;;1.00;99.90;;;;;;5093824;28;20200;-80
2021/01/11 00:08:45;;;;;;;58.77;31.60;;;1.00;99.90;;;;;;5094994;28;20203;-80
2021/01/11 00:11:21;;;;;;;55.30;28.53;;;1.00;99.90;;;;;;5094998;28;20175;-80
2021/01/11 00:13:49;;;;;;;57.35;31.00;;;1.10;99.90;;;;;;5112844;28;20438;-80
2021/01/11 00:16:15;;;;;;;55.22;31.35;;;1.00;99.90;;;;;;5113471;28;20169;-80
2021/01/11 00:18:40;;;;;;;60.22;31.30;;;1.00;99.70;;;;;;5095009;28;20242;-80
2021/01/11 00:21:06;;;;;;;55.10;32.93;;;0.90;99.90;;;;;;5095744;28;20187;-80
2021/01/11 00:23:32;;;;;;;60.80;32.67;;;1.00;99.90;;;;;;5094667;28;20200;-80
2021/01/11 00:25:58;;;;;;;63.03;32.83;;;1.00;99.90;;;;;;5095491;28;20187;-80
2021/01/11 00:28:24;;;;;;;56.70;31.37;;;1.00;99.90;;;;;;5095764;28;20243;-80
2021/01/11 00:30:49;;;;;;;57.83;31.60;;;1.00;99.90;;;;;;5095194;28;20449;-80
2021/01/11 00:33:15;;;;;;;58.90;32.50;;;1.00;99.90;;;;;;5113773;28;20564;-80
2021/01/11 00:35:40;;;;;;;57.10;34.40;;;1.00;99.90;;;;;;5094756;28;20188;-80
2021/01/11 00:38:06;;;;;;;55.73;31.60;;;1.00;99.90;;;;;;5094469;28;20207;-80
2021/01/11 00:40:32;;;;;;;58.57;30.67;;;1.00;99.90;;;;;;5092649;28;20224;-80
2021/01/11 00:42:57;;;;;;;52.83;31.30;;;1.00;99.90;;;;;;5109868;28;20245;-80
2021/01/11 00:45:23;;;;;;;57.53;31.20;;;1.00;99.90;;;;;;5093227;28;20181;-80
2021/01/11 00:47:49;;;;;;;56.80;31.43;;;1.00;99.90;;;;;;5117840;28;20204;-80
2021/01/11 00:50:14;;;;;;;53.30;30.20;;;1.00;99.80;;;;;;5131718;28;20187;-81
2021/01/11 00:52:41;;;;;;;53.40;31.80;;;1.00;99.90;;;;;;5112725;28;20203;-80
2021/01/11 00:55:08;;;;;;;58.55;30.02;;;1.10;99.90;;;;;;5131538;28;20211;-80
2021/01/11 00:57:34;;;;;;;57.10;31.60;;;1.00;99.70;;;;;;5111708;28;20199;-81
2021/01/11 01:00:00;;;;;;;60.10;32.67;;;1.00;99.70;;;;;;5113154;28;20180;-80
2021/01/11 01:02:26;;;;;;;56.50;32.13;;;1.00;99.80;;;;;;5130293;28;20298;-80
2021/01/11 01:04:52;;;;;;;53.85;31.38;;;1.00;99.60;;;;;;5110157;28;20214;-80
2021/01/11 01:07:17;;;;;;;59.27;32.80;;;1.00;99.50;;;;;;5110761;28;20175;-80
2021/01/11 01:09:43;;;;;;;51.37;30.30;;;1.00;99.40;;;;;;5113134;28;20632;-80
2021/01/11 01:12:09;;;;;;;53.87;30.93;;;1.00;99.50;;;;;;5112575;28;20191;-80
2021/01/11 01:14:35;;;;;;;61.60;33.90;;;1.00;99.40;;;;;;5111359;28;20210;-80
2021/01/11 01:17:00;;;;;;;59.70;33.00;;;1.00;99.30;;;;;;5111436;28;20432;-80
2021/01/11 01:19:26;;;;;;;61.20;31.60;;;1.00;99.30;;;;;;5114604;28;20163;-80
2021/01/11 01:21:52;;;;;;;54.13;32.60;;;0.90;99.40;;;;;;5133656;28;20196;-79
2021/01/11 01:24:17;;;;;;;63.53;33.47;;;0.90;99.50;;;;;;5132193;28;20232;-80
2021/01/11 01:26:43;;;;;;;58.87;33.37;;;0.90;99.80;;;;;;5131356;28;20184;-80
2021/01/11 01:29:08;;;;;;;57.67;32.07;;;0.90;99.40;;;;;;5131560;28;20164;-80
2021/01/11 01:31:34;;;;;;;57.50;31.40;;;1.00;99.50;;;;;;5129595;28;20187;-80
2021/01/11 01:34:00;;;;;;;51.50;32.20;;;0.90;98.90;;;;;;5131451;28;20222;-80
2021/01/11 01:36:25;;;;;;;64.43;33.70;;;0.90;99.10;;;;;;5130752;28;20184;-80
2021/01/11 01:38:51;;;;;;;52.17;31.50;;;0.90;99.00;;;;;;5130894;28;20286;-80
2021/01/11 01:41:17;;;;;;;58.73;32.50;;;0.80;99.30;;;;;;5132748;28;20626;-80
2021/01/11 01:43:42;;;;;;;51.60;32.00;;;0.90;99.30;;;;;;5130709;28;20186;-80
2021/01/11 01:46:14;;;;;;;54.70;33.20;;;0.90;99.00;;;;;;5132853;28;20172;-80
2021/01/11 01:48:40;;;;;;;53.80;33.17;;;1.00;99.00;;;;;;5136399;28;20231;-80
2021/01/11 01:51:06;;;;;;;52.88;31.98;;;1.00;98.80;;;;;;5135418;28;20180;-80
2021/01/11 01:53:32;;;;;;;54.40;31.23;;;1.00;98.70;;;;;;5117293;28;20216;-80
2021/01/11 01:55:58;;;;;;;47.13;30.73;;;1.00;98.50;;;;;;5134758;28;20718;-80
2021/01/11 01:58:23;;;;;;;55.03;29.87;;;1.00;98.60;;;;;;5134699;28;20195;-80
2021/01/11 02:00:49;;;;;;;51.47;31.83;;;1.00;98.70;;;;;;5116205;28;20549;-80
2021/01/11 02:03:14;;;;;;;51.53;30.23;;;1.00;98.50;;;;;;5117033;28;20187;-80
2021/01/11 02:05:40;;;;;;;50.20;30.60;;;1.00;98.70;;;;;;5134889;28;20167;-80
2021/01/11 02:08:41;;;;;;;51.07;32.07;;;1.00;98.50;;;;;;5134096;28;20557;-80
2021/01/11 02:11:19;;;;;;;51.17;30.17;;;1.10;98.50;;;;;;5058366;28;20180;-80
2021/01/11 02:14:10;;;;;;;50.13;31.80;;;1.00;98.70;;;;;;5133722;28;20210;-80
2021/01/11 02:17:10;;;;;;;46.83;29.23;;;1.10;98.50;;;;;;5132427;28;20661;-80
2021/01/11 02:20:13;;;;;;;48.72;29.38;;;1.20;98.00;;;;;;5131582;28;20577;-80
2021/01/11 02:23:05;;;;;;;49.03;29.30;;;1.20;98.10;;;;;;5132722;28;20187;-80
2021/01/11 02:26:07;;;;;;;50.75;30.25;;;1.20;98.50;;;;;;5131776;28;20565;-80
2021/01/11 02:28:39;;;;;;;45.03;27.40;;;1.20;98.00;;;;;;5130874;28;20180;-80
2021/01/11 02:31:06;;;;;;;45.33;28.23;;;1.30;98.20;;;;;;5111683;28;20591;-80
2021/01/11 02:33:34;;;;;;;48.03;29.08;;;1.20;98.00;;;;;;5130261;28;20206;-80
2021/01/11 02:36:05;;;;;;;49.95;28.58;;;1.20;97.90;;;;;;5128423;28;20262;-80
2021/01/11 02:38:32;;;;;;;48.60;29.40;;;1.20;98.30;;;;;;5130084;28;20529;-80
2021/01/11 02:40:58;;;;;;;44.25;27.38;;;1.30;98.00;;;;;;5131560;28;20233;-81
2021/01/11 02:43:24;;;;;;;43.23;28.53;;;1.20;98.50;;;;;;5111682;28;20204;-80
2021/01/11 02:45:49;;;;;;;47.47;28.17;;;1.20;98.00;;;;;;5128554;28;20404;-80
2021/01/11 02:48:28;;;;;;;48.17;28.63;;;1.30;98.10;;;;;;5109608;28;20257;-80
2021/01/11 02:51:14;;;;;;;37.85;26.75;;;1.20;97.70;;;;;;5110767;28;20211;-80
2021/01/11 02:53:57;;;;;;;43.63;27.02;;;1.20;98.10;;;;;;5110271;28;20220;-80
2021/01/11 02:56:43;;;;;;;38.83;26.17;;;1.30;97.70;;;;;;5110474;28;20164;-81
2021/01/11 02:59:37;;;;;;;42.28;26.63;;;1.20;98.00;;;;;;5128951;28;20172;-80
2021/01/11 03:02:11;;;;;;;47.20;26.85;;;1.20;98.00;;;;;;5130497;28;20198;-80
2021/01/11 03:04:38;;;;;;;40.15;24.70;;;1.20;97.80;;;;;;5128374;28;20205;-80
2021/01/11 03:07:06;;;;;;;40.65;26.55;;;1.20;97.80;;;;;;5128839;28;20168;-80
2021/01/11 03:09:36;;;;;;;43.33;26.45;;;1.20;97.90;;;;;;5109454;28;20557;-80
2021/01/11 03:12:02;;;;;;;41.42;24.80;;;1.20;97.50;;;;;;5126990;28;20251;-80
2021/01/11 03:14:28;;;;;;;43.05;27.30;;;1.20;97.10;;;;;;5129225;28;20199;-80
2021/01/11 03:16:54;;;;;;;41.33;25.88;;;1.20;97.30;;;;;;5111937;28;20214;-80
2021/01/11 03:19:20;;;;;;;43.07;25.60;;;1.30;97.00;;;;;;5111322;28;20188;-80
2021/01/11 03:21:46;;;;;;;39.42;23.95;;;1.30;96.70;;;;;;5131279;28;20419;-80
2021/01/11 03:24:16;;;;;;;36.47;23.30;;;1.30;97.30;;;;;;5107864;28;20191;-80
2021/01/11 03:26:42;;;;;;;40.30;24.13;;;1.20;96.80;;;;;;5126575;28;20631;-80
2021/01/11 03:29:08;;;;;;;38.63;24.40;;;1.20;97.00;;;;;;5126537;28;20191;-80
2021/01/11 03:31:34;;;;;;;40.83;24.17;;;1.20;97.00;;;;;;5130746;28;20374;-80
2021/01/11 03:34:00;;;;;;;36.70;24.00;;;1.20;97.00;;;;;;5128482;28;20244;-80
2021/01/11 03:36:25;;;;;;;37.37;21.97;;;1.20;96.90;;;;;;5131658;28;20180;-80
2021/01/11 03:38:52;;;;;;;43.93;27.27;;;1.20;96.60;;;;;;5110165;28;20640;-80
2021/01/11 03:41:18;;;;;;;35.78;23.30;;;1.20;96.80;;;;;;5132077;28;20176;-80
2021/01/11 03:43:45;;;;;;;36.45;24.85;;;1.20;96.70;;;;;;5111709;28;20188;-80
2021/01/11 03:46:15;;;;;;;39.63;25.13;;;1.20;96.70;;;;;;5109139;28;20248;-80
2021/01/11 03:48:42;;;;;;;37.67;23.50;;;1.20;96.60;;;;;;5128260;28;20304;-80
2021/01/11 03:51:08;;;;;;;36.35;24.13;;;1.20;96.70;;;;;;5109412;28;20210;-80
2021/01/11 03:53:34;;;;;;;40.72;23.42;;;1.20;96.40;;;;;;5111491;28;20279;-80
2021/01/11 03:56:04;;;;;;;37.30;24.55;;;1.20;96.50;;;;;;5126072;28;20168;-80
2021/01/11 03:58:30;;;;;;;43.05;24.63;;;1.20;96.50;;;;;;5129815;28;20187;-80
2021/01/11 04:00:58;;;;;;;39.13;23.73;;;1.20;96.60;;;;;;5128213;28;20172;-80
2021/01/11 04:03:25;;;;;;;37.10;24.25;;;1.20;96.70;;;;;;5125087;28;20188;-80
2021/01/11 04:05:50;;;;;;;38.65;24.63;;;1.10;96.50;;;;;;5108979;28;20192;-80
2021/01/11 04:08:16;;;;;;;41.70;25.63;;;1.10;97.00;;;;;;5128771;28;20183;-80
2021/01/11 04:10:42;;;;;;;42.77;27.07;;;1.20;96.50;;;;;;5108691;28;20194;-80
2021/01/11 04:13:08;;;;;;;40.63;25.07;;;1.10;96.70;;;;;;5130799;28;20423;-80
2021/01/11 04:15:34;;;;;;;43.83;24.47;;;1.10;96.70;;;;;;5110428;28;20180;-80
2021/01/11 04:18:00;;;;;;;40.40;25.27;;;1.10;97.20;;;;;;5109411;28;20648;-80
2021/01/11 04:20:26;;;;;;;39.20;24.53;;;1.10;96.90;;;;;;5129729;28;20185;-80
2021/01/11 04:22:52;;;;;;;44.72;26.95;;;1.00;97.10;;;;;;5129456;28;20206;-80
2021/01/11 04:25:18;;;;;;;45.87;27.73;;;1.10;97.00;;;;;;5126554;28;20184;-80
2021/01/11 04:27:44;;;;;;;39.00;25.10;;;1.10;97.00;;;;;;5110578;28;20279;-80
2021/01/11 04:30:10;;;;;;;43.40;26.23;;;1.00;97.20;;;;;;5127138;28;20247;-80
2021/01/11 04:32:36;;;;;;;42.13;26.27;;;1.00;97.50;;;;;;5125936;28;20390;-80
2021/01/11 04:35:04;;;;;;;45.90;28.47;;;0.90;97.50;;;;;;5129244;28;20204;-80
2021/01/11 04:37:30;;;;;;;43.03;26.40;;;0.90;97.70;;;;;;5128532;28;20419;-80
2021/01/11 04:39:55;;;;;;;43.83;24.57;;;0.90;98.10;;;;;;5126108;28;20179;-80
2021/01/11 04:42:28;;;;;;;42.97;25.70;;;1.20;97.30;;;;;;5109824;28;20182;-80
2021/01/11 04:44:58;;;;;;;40.13;26.05;;;1.60;96.40;;;;;;5130299;28;20147;-80
2021/01/11 04:47:24;;;;;;;42.65;25.52;;;2.20;95.30;;;;;;5110665;28;20208;-80
2021/01/11 04:49:53;;;;;;;41.08;25.38;;;2.10;94.80;;;;;;5089551;28;20202;-80
2021/01/11 04:52:20;;;;;;;40.83;24.65;;;2.30;94.40;;;;;;5110342;28;20245;-80
2021/01/11 04:54:50;;;;;;;41.00;24.40;;;2.10;95.40;;;;;;5106856;28;20203;-80
2021/01/11 04:57:16;;;;;;;46.42;28.55;;;2.10;95.80;;;;;;5107468;28;20181;-80
2021/01/11 04:59:49;;;;;;;40.17;22.70;;;2.50;95.00;;;;;;5108232;28;20189;-80
2021/01/11 05:02:22;;;;;;;39.97;22.50;;;2.90;94.80;;;;;;5090266;28;20189;-80
2021/01/11 05:04:52;;;;;;;35.45;22.70;;;3.10;94.30;;;;;;5106024;28;20656;-80
2021/01/11 05:07:22;;;;;;;43.10;23.77;;;3.30;92.70;;;;;;5090247;28;20192;-80
2021/01/11 05:09:48;;;;;;;43.50;26.00;;;3.10;92.60;;;;;;5092392;28;20199;-80
2021/01/11 05:12:14;;;;;;;44.45;26.88;;;2.80;93.30;;;;;;5091994;28;20286;-80
2021/01/11 05:14:42;;;;;;;42.92;26.00;;;2.60;94.10;;;;;;5109514;28;20201;-80
2021/01/11 05:17:10;;;;;;;45.67;25.55;;;2.40;94.80;;;;;;5109110;28;20184;-80
2021/01/11 05:19:36;;;;;;;46.20;25.35;;;2.20;95.70;;;;;;5109376;28;20524;-80
2021/01/11 05:22:02;;;;;;;46.97;29.77;;;2.00;96.40;;;;;;5114384;28;20196;-80
2021/01/11 05:24:39;;;;;;;48.33;29.77;;;1.80;96.60;;;;;;5116875;28;20750;-80
2021/01/11 05:27:07;;;;;;;51.35;30.48;;;1.70;97.00;;;;;;5116029;28;20464;-80
2021/01/11 05:29:34;;;;;;;46.35;27.67;;;1.70;97.70;;;;;;5097795;28;20180;-80
2021/01/11 05:32:03;;;;;;;44.38;23.50;;;1.70;97.40;;;;;;5095306;28;20196;-80
2021/01/11 05:34:46;;;;;;;45.85;26.35;;;2.80;97.00;;;;;;5114345;28;20223;-80
2021/01/11 05:37:34;;;;;;;41.45;24.70;;;3.80;95.10;;;;;;5114110;28;20184;-80
2021/01/11 05:40:11;;;;;;;39.63;23.20;;;4.30;94.20;;;;;;5116614;28;20184;-80
2021/01/11 05:42:39;;;;;;;42.15;22.35;;;4.60;94.20;;;;;;5116537;28;20239;-80
2021/01/11 05:45:15;;;;;;;45.13;25.77;;;4.80;93.90;;;;;;5100097;28;20180;-80
2021/01/11 05:48:14;;;;;;;46.00;26.05;;;5.00;92.80;;;;;;5100389;28;20227;-80
2021/01/11 05:50:42;;;;;;;50.25;28.52;;;4.20;89.60;;;;;;5102001;28;20191;-80
2021/01/11 05:53:19;;;;;;;45.92;29.67;;;3.40;91.80;;;;;;5136165;28;20188;-80
2021/01/11 05:55:47;;;;;;;46.70;26.30;;;2.80;93.30;;;;;;5138679;27;20182;-81
2021/01/11 05:58:13;;;;;;;45.80;28.23;;;2.40;94.90;;;;;;5158543;27;20159;-80
2021/01/11 06:00:40;;;;;;;47.88;30.42;;;2.00;95.50;;;;;;5157859;27;20204;-80
2021/01/11 06:03:08;;;;;;;45.28;27.63;;;1.60;96.80;;;;;;5159630;27;20180;-80
2021/01/11 06:05:35;;;;;;;47.65;29.27;;;1.30;97.80;;;;;;5139724;27;20195;-80
2021/01/11 06:08:02;;;;;;;46.22;29.42;;;1.20;98.40;;;;;;5155960;27;20191;-80
2021/01/11 06:10:28;;;;;;;47.95;28.33;;;1.10;98.40;;;;;;5156751;27;20560;-80
2021/01/11 06:12:54;;;;;;;49.22;29.17;;;1.00;98.60;;;;;;5138086;27;20209;-80
2021/01/11 06:15:24;;;;;;;49.67;28.53;;;0.90;98.90;;;;;;5157843;27;20214;-80
2021/01/11 06:17:56;;;;;;;48.20;29.13;;;0.90;98.90;;;;;;5155045;27;20397;-80
2021/01/11 06:20:24;;;;;;;50.88;29.27;;;0.90;99.10;;;;;;5156887;27;20163;-80
2021/01/11 06:22:49;;;;;;;51.65;30.15;;;0.80;99.50;;;;;;5156028;27;20183;-80
2021/01/11 06:25:36;;;;;;;44.40;26.97;;;0.80;99.70;;;;;;5135583;27;20197;-80
2021/01/11 06:28:01;;;;;;;49.38;30.73;;;0.90;99.10;;;;;;5137399;27;20726;-80
2021/01/11 06:30:39;;;;;;;48.80;30.57;;;0.80;99.00;;;;;;5134077;27;20175;-80
2021/01/11 06:33:24;;;;;;;56.95;30.40;;;0.80;98.90;;;;;;5151479;27;20262;-80
2021/01/11 06:35:51;;;;;;;65.97;34.45;;;0.80;99.40;;;;;;5131755;27;20179;-80
2021/01/11 06:38:26;;;;;;;69.95;34.20;;;0.80;99.60;;;;;;5151005;27;20175;-80
2021/01/11 06:40:54;;;;;;;48.58;29.33;;;0.70;99.20;;;;;;5151774;27;20186;-80
2021/01/11 06:43:22;;;;;;;50.08;29.25;;;0.80;99.10;;;;;;5151772;27;20179;-80
2021/01/11 06:45:50;;;;;;;53.00;32.10;;;0.80;99.30;;;;;;5152026;27;20167;-80
2021/01/11 06:48:18;;;;;;;44.60;28.95;;;0.80;98.80;;;;;;5152140;27;20215;-80
2021/01/11 06:50:46;;;;;;;54.70;34.60;;;0.80;99.00;;;;;;5131777;27;20245;-80
2021/01/11 06:53:12;;;;;;;59.45;34.92;;;0.80;99.00;;;;;;5151643;27;20175;-80
2021/01/11 06:55:39;;;;;;;50.35;30.33;;;0.80;99.30;;;;;;5150385;27;20269;-80
2021/01/11 06:58:05;;;;;;;61.05;36.20;;;0.80;99.30;;;;;;5151743;27;20180;-80
2021/01/11 07:00:33;;;;;;;56.63;34.27;;;0.80;99.20;;;;;;5149976;27;20198;-80
2021/01/11 07:03:00;;;;;;;65.03;36.38;;;0.70;99.40;;;;;;5150515;27;20393;-81
2021/01/11 07:05:35;;;;;;;67.20;36.60;;;0.70;99.50;;;;;;5130697;27;20238;-82
2021/01/11 07:08:12;;;;;;;121.22;52.85;;;0.80;99.70;;;;;;5141162;27;20574;-81
2021/01/11 07:10:40;;;;;;;122.72;52.25;;;0.80;99.50;;;;;;5123040;27;20190;-81
2021/01/11 07:13:19;;;;;;;122.70;53.42;;;0.70;99.90;;;;;;5143296;27;20183;-81
2021/01/11 07:15:51;;;;;;;128.30;68.07;;;0.80;99.90;;;;;;5136543;27;20199;-81
2021/01/11 07:18:38;;;;;;;115.95;55.80;;;0.80;99.90;;;;;;5128353;27;20199;-81
2021/01/11 07:21:15;;;;;;;158.00;68.00;;;0.80;99.90;;;;;;5132954;27;20183;-81
2021/01/11 07:23:41;;;;;;;74.07;39.55;;;0.90;99.90;;;;;;5147380;27;20219;-81
2021/01/11 07:26:34;;;;;;;86.75;40.25;;;0.90;99.90;;;;;;5153836;27;20707;-81
2021/01/11 07:29:04;;;;;;;122.43;48.80;;;0.90;99.90;;;;;;5119646;27;20199;-81
2021/01/11 07:31:34;;;;;;;89.05;41.38;;;0.80;99.90;;;;;;5133099;27;20194;-80
2021/01/11 07:34:24;;;;;;;93.45;41.05;;;0.80;99.90;;;;;;5122471;27;20195;-80
2021/01/11 07:36:52;;;;;;;69.70;36.60;;;0.90;99.90;;;;;;5125497;27;20184;-81
2021/01/11 07:39:24;;;;;;;57.85;32.88;;;1.00;99.90;;;;;;5126350;27;20270;-81
2021/01/11 07:41:56;;;;;;;48.28;27.83;;;1.10;99.60;;;;;;5143258;27;20184;-81
2021/01/11 07:44:26;;;;;;;46.90;30.90;;;1.00;99.50;;;;;;5117483;27;20197;-81
2021/01/11 07:47:00;;;;;;;48.95;29.45;;;1.10;99.60;;;;;;5146035;27;20214;-80
2021/01/11 07:49:28;;;;;;;50.47;28.65;;;1.10;99.40;;;;;;5132233;27;20228;-80
2021/01/11 07:52:00;;;;;;;68.70;34.92;;;1.00;99.60;;;;;;5147910;27;20184;-81
2021/01/11 07:54:25;;;;;;;50.33;28.05;;;1.20;99.30;;;;;;5151794;27;20219;-80
2021/01/11 07:56:51;;;;;;;63.40;32.77;;;1.10;99.70;;;;;;5154279;27;20190;-80
2021/01/11 07:59:17;;;;;;;63.33;34.43;;;1.10;99.50;;;;;;5155039;27;20207;-80
2021/01/11 08:01:46;;;;;;;130.85;49.28;;;1.10;99.50;;;;;;5153423;27;20175;-81
2021/01/11 08:04:13;;;;;;;118.53;44.25;;;1.10;99.60;;;;;;5147935;27;20198;-81
2021/01/11 08:06:55;;;;;;;174.55;53.97;;;1.10;99.40;;;;;;5138420;27;20207;-81
2021/01/11 08:09:26;;;;;;;101.65;41.92;;;1.10;99.20;;;;;;5149590;27;20191;-81
2021/01/11 08:12:11;;;;;;;103.05;42.00;;;1.10;99.30;;;;;;5116833;27;20191;-81
2021/01/11 08:14:41;;;;;;;68.40;30.40;;;1.10;99.30;;;;;;5130747;27;20232;-81
2021/01/11 08:17:18;;;;;;;74.18;33.58;;;1.00;99.40;;;;;;5152482;27;20506;-81
2021/01/11 08:19:55;;;;;;;107.53;44.95;;;1.00;99.30;;;;;;5153521;27;20186;-81
2021/01/11 08:22:22;;;;;;;51.28;29.55;;;1.00;99.20;;;;;;5155531;27;20258;-80
2021/01/11 08:24:51;;;;;;;111.90;41.42;;;1.20;99.20;;;;;;5139016;27;20172;-80
2021/01/11 08:27:46;;;;;;;74.60;34.00;;;1.20;99.40;;;;;;5123117;27;20198;-80
2021/01/11 08:30:16;;;;;;;144.60;48.83;;;1.30;99.10;;;;;;5154557;27;20194;-80
2021/01/11 08:32:43;;;;;;;160.15;56.58;;;1.30;98.80;;;;;;5153490;27;20518;-80
2021/01/11 08:35:12;;;;;;;144.48;47.70;;;1.30;99.20;;;;;;5155423;27;20199;-80
2021/01/11 08:37:38;;;;;;;129.75;50.42;;;1.40;98.70;;;;;;5150813;27;20225;-80
2021/01/11 08:40:25;;;;;;;151.25;47.67;;;1.40;99.20;;;;;;5153571;27;20239;-80
2021/01/11 08:42:51;;;;;;;139.32;47.88;;;1.40;98.40;;;;;;5155060;27;20634;-80
2021/01/11 08:45:43;;;;;;;190.03;56.60;;;1.40;98.70;;;;;;5135727;27;20194;-80
2021/01/11 08:48:11;;;;;;;123.18;47.25;;;1.40;99.00;;;;;;5149093;27;20284;-80
2021/01/11 08:50:41;;;;;;;133.15;46.53;;;1.40;98.30;;;;;;5128587;27;20223;-80
2021/01/11 08:53:25;;;;;;;108.32;43.15;;;1.40;98.50;;;;;;5124672;27;20207;-80
2021/01/11 08:56:00;;;;;;;123.65;44.15;;;1.40;98.40;;;;;;5123107;28;20292;-80
2021/01/11 08:58:34;;;;;;;129.30;45.67;;;1.60;98.40;;;;;;5148121;27;20573;-81
2021/01/11 09:01:17;;;;;;;79.82;34.22;;;1.50;98.10;;;;;;5132503;27;20167;-80
2021/01/11 09:03:52;;;;;;;107.60;39.38;;;1.40;97.90;;;;;;5147725;27;20178;-81
2021/01/11 09:06:36;;;;;;;74.70;32.35;;;1.40;97.90;;;;;;5132738;28;20223;-80
2021/01/11 09:09:06;;;;;;;91.80;35.28;;;1.40;98.40;;;;;;5132520;27;20201;-81
2021/01/11 09:11:32;;;;;;;126.90;44.58;;;1.40;97.90;;;;;;5136513;28;20244;-81
2021/01/11 09:14:07;;;;;;;105.07;41.20;;;1.40;97.90;;;;;;5149880;27;20191;-80
2021/01/11 09:16:34;;;;;;;147.38;48.17;;;1.50;98.00;;;;;;5118141;28;20406;-81
2021/01/11 09:19:11;;;;;;;85.43;37.90;;;1.60;98.40;;;;;;5152748;28;20178;-80
2021/01/11 09:21:40;;;;;;;114.40;44.03;;;1.50;98.30;;;;;;5151071;28;20218;-80
2021/01/11 09:24:07;;;;;;;111.55;41.03;;;1.60;98.50;;;;;;5150941;28;20179;-80
2021/01/11 09:26:42;;;;;;;81.13;36.35;;;1.50;98.10;;;;;;5153431;28;20198;-80
2021/01/11 09:29:09;;;;;;;100.35;41.63;;;1.50;98.20;;;;;;5153412;28;20221;-80
2021/01/11 09:31:35;;;;;;;72.63;33.05;;;1.50;98.20;;;;;;5120925;28;20225;-80
2021/01/11 09:34:02;;;;;;;85.78;36.90;;;1.50;98.00;;;;;;5153430;28;20302;-80
2021/01/11 09:36:38;;;;;;;50.95;28.65;;;1.60;97.50;;;;;;5134865;28;20206;-80
2021/01/11 09:39:12;;;;;;;67.78;32.63;;;1.60;97.60;;;;;;5140319;28;20705;-80
2021/01/11 09:41:53;;;;;;;61.60;30.40;;;1.50;97.40;;;;;;5132571;28;20663;-80
2021/01/11 09:44:19;;;;;;;61.08;30.75;;;1.70;97.70;;;;;;5125406;28;20175;-80
2021/01/11 09:46:51;;;;;;;63.72;28.85;;;1.80;98.00;;;;;;5151120;28;20160;-80
2021/01/11 09:49:17;;;;;;;66.95;32.45;;;1.80;97.30;;;;;;5129678;28;20298;-80
2021/01/11 09:51:42;;;;;;;52.00;28.13;;;1.80;97.50;;;;;;5133860;28;20187;-80
2021/01/11 09:54:09;;;;;;;52.10;28.93;;;1.90;97.60;;;;;;5153328;28;20932;-80
2021/01/11 09:56:36;;;;;;;48.72;28.33;;;2.00;97.10;;;;;;5125937;28;20407;-80
2021/01/11 09:59:03;;;;;;;44.45;26.20;;;2.00;97.60;;;;;;5152899;28;20670;-80
2021/01/11 10:01:55;;;;;;;52.22;28.85;;;2.10;97.10;;;;;;5145545;27;20270;-80
2021/01/11 10:04:20;;;;;;;46.58;27.27;;;2.00;96.50;;;;;;5124639;28;20195;-79
2021/01/11 10:06:48;;;;;;;40.43;24.90;;;2.10;96.40;;;;;;5150613;27;20199;-79
2021/01/11 10:09:16;;;;;;;48.90;29.63;;;2.00;96.60;;;;;;5131982;27;20929;-79
2021/01/11 10:11:46;;;;;;;47.88;26.65;;;2.00;97.50;;;;;;5144762;27;20210;-80
2021/01/11 10:14:12;;;;;;;40.13;23.77;;;2.00;96.60;;;;;;5133155;27;20305;-79
2021/01/11 10:16:44;;;;;;;39.10;26.30;;;2.10;96.10;;;;;;5136062;27;20175;-79
2021/01/11 10:19:13;;;;;;;44.75;30.45;;;2.00;96.50;;;;;;5152782;27;20453;-79
2021/01/11 10:21:39;;;;;;;45.22;29.17;;;2.20;96.60;;;;;;5136885;27;20255;-80
2021/01/11 10:24:06;;;;;;;36.70;25.63;;;2.30;96.80;;;;;;5154330;27;20203;-79
2021/01/11 10:26:34;;;;;;;41.85;25.27;;;2.20;96.00;;;;;;5155761;27;20444;-79
2021/01/11 10:29:00;;;;;;;43.05;25.95;;;2.20;96.30;;;;;;5154248;27;20195;-80
2021/01/11 10:31:26;;;;;;;38.65;24.60;;;2.40;95.80;;;;;;5136593;27;20179;-80
2021/01/11 10:33:52;;;;;;;36.70;22.27;;;2.20;96.60;;;;;;5155931;27;20223;-80
2021/01/11 10:36:18;;;;;;;38.50;23.00;;;2.20;96.20;;;;;;5128879;27;20194;-79
2021/01/11 10:38:43;;;;;;;47.08;27.92;;;2.20;96.40;;;;;;5127759;27;20199;-79
2021/01/11 10:41:15;;;;;;;38.13;25.20;;;2.20;96.30;;;;;;5152525;27;20179;-79
2021/01/11 10:43:41;;;;;;;45.85;29.33;;;2.30;96.70;;;;;;5154635;27;20763;-79
2021/01/11 10:46:11;;;;;;;41.20;27.50;;;2.40;96.60;;;;;;5144576;27;20187;-78
2021/01/11 10:48:40;;;;;;;38.72;23.52;;;2.30;97.30;;;;;;5150912;27;20218;-78
2021/01/11 10:51:10;;;;;;;34.33;20.88;;;2.50;96.10;;;;;;5150694;27;20194;-79
2021/01/11 10:53:37;;;;;;;34.30;22.40;;;2.60;95.90;;;;;;5132583;27;20646;-79
2021/01/11 10:56:03;;;;;;;39.90;24.60;;;2.50;95.70;;;;;;5152780;27;20198;-80
2021/01/11 10:58:28;;;;;;;42.33;27.20;;;2.50;96.10;;;;;;5156090;27;20187;-80
2021/01/11 11:07:39;;;;;;;35.72;22.60;;;2.80;95.70;;;;;;5149987;27;20174;-78
2021/01/11 11:10:06;;;;;;;35.87;22.43;;;2.80;95.90;;;;;;5140015;27;20183;-78
2021/01/11 11:12:33;;;;;;;35.70;23.15;;;2.70;95.60;;;;;;5120124;27;20212;-78
2021/01/11 11:18:20;;;;;;;35.28;22.75;;;2.80;96.70;;;;;;5151568;27;20602;-79
2021/01/11 11:20:47;;;;;;;37.20;23.13;;;2.80;95.70;;;;;;5136191;27;20202;-79
2021/01/11 11:23:13;;;;;;;33.38;22.90;;;2.90;95.70;;;;;;5155334;27;20183;-79
2021/01/11 11:25:45;;;;;;;35.30;22.30;;;2.90;95.80;;;;;;5138434;27;20202;-79
2021/01/11 11:31:37;;;;;;;36.05;23.55;;;2.80;95.80;;;;;;5141574;27;20586;-79
2021/01/11 11:34:03;;;;;;;39.47;21.55;;;2.90;95.40;;;;;;5152539;27;20219;-79
2021/01/11 11:39:51;;;;;;;33.10;21.45;;;2.70;95.00;;;;;;5147387;27;20691;-80
2021/01/11 11:42:17;;;;;;;35.60;22.53;;;2.60;95.60;;;;;;5147904;27;20183;-80
2021/01/11 11:44:42;;;;;;;37.57;23.80;;;2.70;95.60;;;;;;5149952;27;20552;-80
2021/01/11 11:47:08;;;;;;;33.63;22.93;;;2.70;95.90;;;;;;5132454;27;20274;-80
2021/01/11 11:49:33;;;;;;;37.10;24.27;;;2.70;95.60;;;;;;5132714;27;20194;-80
2021/01/11 11:51:59;;;;;;;36.97;22.90;;;2.80;95.40;;;;;;5156858;27;20183;-80
2021/01/11 11:54:25;;;;;;;41.87;25.33;;;2.80;95.30;;;;;;5132101;27;20612;-80
2021/01/11 11:56:50;;;;;;;42.03;25.77;;;2.80;94.60;;;;;;5131707;27;20198;-78
2021/01/11 11:59:16;;;;;;;38.87;22.70;;;2.80;95.70;;;;;;5133297;27;20259;-79
2021/01/11 12:05:10;;;;;;;37.83;22.77;;;2.80;94.90;;;;;;5147610;27;20242;-79
2021/01/11 12:10:57;;;;;;;40.65;24.52;;;2.70;95.40;;;;;;5144183;27;20190;-79
2021/01/11 12:13:23;;;;;;;40.17;23.87;;;2.80;95.70;;;;;;5153800;27;20227;-80
2021/01/11 12:15:49;;;;;;;35.17;24.27;;;2.80;95.40;;;;;;5135449;27;20187;-79
2021/01/11 12:18:14;;;;;;;38.60;26.77;;;2.70;95.10;;;;;;5153659;27;20214;-79
2021/01/11 12:20:42;;;;;;;36.80;25.00;;;2.70;94.80;;;;;;5151389;27;20638;-79
2021/01/11 12:23:07;;;;;;;38.17;24.48;;;2.70;95.30;;;;;;5153490;27;20179;-79
2021/01/11 12:25:33;;;;;;;40.73;23.70;;;2.80;95.10;;;;;;5153807;27;20257;-79
2021/01/11 12:27:59;;;;;;;34.10;23.07;;;2.70;95.10;;;;;;5152343;27;20212;-79
2021/01/11 12:30:24;;;;;;;36.37;24.50;;;2.70;94.90;;;;;;5133893;27;20198;-79
2021/01/11 12:32:50;;;;;;;38.27;23.90;;;2.60;95.30;;;;;;5133888;27;20218;-79
2021/01/11 12:35:16;;;;;;;38.20;23.87;;;2.50;95.60;;;;;;5154575;27;20429;-79
2021/01/11 12:37:42;;;;;;;35.88;22.77;;;2.50;95.80;;;;;;5150304;27;20658;-81
2021/01/11 12:40:08;;;;;;;38.80;24.47;;;2.60;95.70;;;;;;5138159;27;20195;-78
2021/01/11 12:42:34;;;;;;;38.78;22.83;;;2.60;95.70;;;;;;5152183;27;20194;-79
2021/01/11 12:45:02;;;;;;;41.03;25.90;;;2.50;95.60;;;;;;5153763;27;20198;-79
2021/01/11 12:47:33;;;;;;;42.47;24.27;;;2.60;96.00;;;;;;5152389;27;20163;-80
2021/01/11 12:49:59;;;;;;;37.45;23.25;;;2.60;96.00;;;;;;5156453;27;20252;-81
2021/01/11 12:52:25;;;;;;;40.47;25.63;;;2.60;96.10;;;;;;5133855;27;20191;-81
2021/01/11 12:54:50;;;;;;;39.83;25.00;;;2.60;96.10;;;;;;5136004;27;21101;-81
2021/01/11 12:57:16;;;;;;;40.30;25.57;;;2.60;95.80;;;;;;5153718;27;20202;-81
2021/01/11 12:59:42;;;;;;;46.13;26.47;;;2.50;96.70;;;;;;5154985;27;20189;-81
2021/01/11 13:02:07;;;;;;;36.60;23.83;;;2.50;96.70;;;;;;5153707;27;20263;-81
2021/01/11 13:04:34;;;;;;;37.20;23.77;;;2.50;96.10;;;;;;5124323;27;20206;-80
2021/01/11 13:07:00;;;;;;;37.28;25.20;;;2.60;96.30;;;;;;5151581;27;20186;-80
2021/01/11 13:09:26;;;;;;;42.70;24.27;;;2.50;96.30;;;;;;5133233;27;20643;-80
2021/01/11 13:11:53;;;;;;;46.67;27.13;;;2.60;96.50;;;;;;5153238;27;20182;-80